Time,TemperatureF,DewpointF,PressureIn,WindDirection,WindDirectionDegrees,WindSpeedMPH,WindSpeedGustMPH,Humidity,HourlyPrecipIn,Conditions,Clouds,dailyrainin,SolarRadiationWatts/m^2,SoftwareType,DateUTC
2013-09-13 00:00:00,65.2,64.3,29.84,WSW,242,0.0,3.0,97,0.02,,---,0.52,0.00,VWS V14.01,2013-09-13 04:00:00,
2013-09-13 00:01:00,65.2,64.3,29.85,WSW,242,0.0,1.0,97,0.02,,---,0.52,0.00,VWS V14.01,2013-09-13 04:01:00,
2013-09-13 00:03:00,65.2,64.3,29.85,WSW,242,0.0,3.0,97,0.02,,---,0.52,0.00,VWS V14.01,2013-09-13 04:03:00,
2013-09-13 00:06:00,65.2,64.3,29.84,WSW,242,0.0,3.0,97,0.02,,---,0.52,0.00,VWS V14.01,2013-09-13 04:06:00,
2013-09-13 00:08:00,65.2,64.3,29.84,WSW,242,0.0,3.0,97,0.02,,---,0.52,0.00,VWS V14.01,2013-09-13 04:08:00,
2013-09-13 00:09:00,65.2,64.3,29.84,WSW,242,0.0,1.0,97,0.01,,---,0.00,0.00,VWS V14.01,2013-09-13 04:09:00,
2013-09-13 00:10:00,65.2,64.3,29.83,WSW,242,0.0,5.0,97,0.01,,---,0.00,0.00,VWS V14.01,2013-09-13 04:10:00,
2013-09-13 00:14:00,65.2,64.3,29.84,WSW,242,0.0,5.0,97,0.01,,---,0.00,0.00,VWS V14.01,2013-09-13 04:14:00,
2013-09-13 00:20:00,65.2,64.3,29.83,WSW,242,0.0,0.0,97,0.00,,---,0.00,0.00,VWS V14.01,2013-09-13 04:20:00,
2013-09-13 00:25:00,65.2,64.3,29.83,WSW,242,0.0,2.0,97,0.00,,---,0.00,0.00,VWS V14.01,2013-09-13 04:25:00,
2013-09-13 00:30:00,65.3,64.7,29.83,WSW,242,0.0,1.0,98,0.00,,---,0.00,0.00,VWS V14.01,2013-09-13 04:30:00,
2013-09-13 00:35:00,65.4,64.8,29.83,WSW,242,0.0,1.0,98,0.00,,---,0.00,0.00,VWS V14.01,2013-09-13 04:35:00,
2013-09-13 00:40:00,65.4,64.8,29.83,WSW,242,1.0,1.0,98,0.00,,---,0.00,0.00,VWS V14.01,2013-09-13 04:40:00,
2013-09-13 00:45:00,65.4,64.8,29.83,WSW,242,0.0,1.0,98,0.00,,---,0.00,0.00,VWS V14.01,2013-09-13 04:45:00,
2013-09-13 00:50:00,65.4,64.8,29.82,WSW,242,0.0,2.0,98,0.00,,---,0.00,0.00,VWS V14.01,2013-09-13 04:50:00,
2013-09-13 00:51:00,65.4,64.8,29.83,WSW,242,0.0,2.0,98,0.00,,---,0.00,0.00,VWS V14.01,2013-09-13 04:51:00,
2013-09-13 00:56:00,65.4,64.8,29.82,WSW,242,0.0,2.0,98,0.00,,---,0.00,0.00,VWS V14.01,2013-09-13 04:56:00,
2013-09-13 01:00:00,65.4,64.8,29.82,WSW,242,0.0,4.0,98,0.00,,---,0.00,0.00,VWS V14.01,2013-09-13 05:00:00,
2013-09-13 01:01:00,65.4,64.8,29.82,WSW,242,0.0,4.0,98,0.00,,---,0.00,0.00,VWS V14.01,2013-09-13 05:01:00,
2013-09-13 01:06:00,65.4,64.8,29.81,WSW,242,0.0,4.0,98,0.00,,---,0.00,0.00,VWS V14.01,2013-09-13 05:06:00,
2013-09-13 01:10:00,65.4,64.8,29.81,WSW,242,0.0,3.0,98,0.00,,---,0.00,0.00,VWS V14.01,2013-09-13 05:10:00,
2013-09-13 01:11:00,65.4,64.8,29.81,WSW,242,0.0,2.0,98,0.00,,---,0.00,0.00,VWS V14.01,2013-09-13 05:11:00,
2013-09-13 01:16:00,65.4,64.8,29.81,WSW,242,1.0,3.0,98,0.00,,---,0.00,0.00,VWS V14.01,2013-09-13 05:16:00,
2013-09-13 01:20:00,65.4,64.8,29.81,WSW,242,0.0,2.0,98,0.00,,---,0.00,0.00,VWS V14.01,2013-09-13 05:20:00,
2013-09-13 01:21:00,65.4,64.8,29.81,WSW,242,0.0,1.0,98,0.00,,---,0.00,0.00,VWS V14.01,2013-09-13 05:21:00,
2013-09-13 01:27:00,65.4,64.8,29.81,WSW,242,0.0,2.0,98,0.00,,---,0.00,0.00,VWS V14.01,2013-09-13 05:27:00,
2013-09-13 01:30:00,65.4,64.8,29.81,WSW,242,1.0,4.0,98,0.00,,---,0.00,0.00,VWS V14.01,2013-09-13 05:30:00,
2013-09-13 01:32:00,65.4,64.8,29.81,WSW,242,0.0,1.0,98,0.00,,---,0.00,0.00,VWS V14.01,2013-09-13 05:32:00,
2013-09-13 01:37:00,65.4,64.8,29.81,WSW,242,0.0,4.0,98,0.00,,---,0.00,0.00,VWS V14.01,2013-09-13 05:37:00,
2013-09-13 01:40:00,65.4,64.8,29.81,WSW,242,0.0,4.0,98,0.00,,---,0.00,0.00,VWS V14.01,2013-09-13 05:40:00,
2013-09-13 01:42:00,65.5,64.9,29.81,WSW,242,0.0,4.0,98,0.00,,---,0.00,0.00,VWS V14.01,2013-09-13 05:42:00,
2013-09-13 01:47:00,65.4,64.8,29.81,WSW,242,0.0,4.0,98,0.00,,---,0.00,0.00,VWS V14.01,2013-09-13 05:47:00,
2013-09-13 01:50:00,65.4,64.8,29.81,WSW,242,1.0,4.0,98,0.00,,---,0.00,0.00,VWS V14.01,2013-09-13 05:50:00,
2013-09-13 01:52:00,65.4,64.8,29.81,WSW,242,0.0,4.0,98,0.00,,---,0.00,0.00,VWS V14.01,2013-09-13 05:52:00,
2013-09-13 01:57:00,65.4,64.8,29.81,WSW,242,1.0,4.0,98,0.00,,---,0.00,0.00,VWS V14.01,2013-09-13 05:57:00,
2013-09-13 02:00:00,65.3,64.7,29.81,WSW,242,0.0,5.0,98,0.00,,---,0.00,0.00,VWS V14.01,2013-09-13 06:00:00,
2013-09-13 02:02:00,65.4,64.8,29.81,WSW,242,1.0,4.0,98,0.00,,---,0.00,0.00,VWS V14.01,2013-09-13 06:02:00,
2013-09-13 02:08:00,65.3,64.7,29.81,WSW,242,0.0,5.0,98,0.00,,---,0.00,0.00,VWS V14.01,2013-09-13 06:08:00,
2013-09-13 02:10:00,65.3,64.7,29.80,WSW,242,2.0,3.0,98,0.00,,---,0.00,0.00,VWS V14.01,2013-09-13 06:10:00,
2013-09-13 02:13:00,65.3,64.7,29.80,WSW,242,0.0,3.0,98,0.00,,---,0.00,0.00,VWS V14.01,2013-09-13 06:13:00,
2013-09-13 02:18:00,65.3,64.7,29.80,WSW,242,2.0,3.0,98,0.00,,---,0.00,0.00,VWS V14.01,2013-09-13 06:18:00,
2013-09-13 02:20:00,65.3,64.7,29.80,WSW,242,0.0,5.0,98,0.00,,---,0.00,0.00,VWS V14.01,2013-09-13 06:20:00,
2013-09-13 02:23:00,65.3,64.7,29.80,WSW,242,0.0,5.0,98,0.00,,---,0.00,0.00,VWS V14.01,2013-09-13 06:23:00,
2013-09-13 02:28:00,65.3,64.7,29.80,WSW,242,0.0,5.0,98,0.00,,---,0.00,0.00,VWS V14.01,2013-09-13 06:28:00,
2013-09-13 02:30:00,65.1,64.5,29.80,WSW,242,1.0,4.0,98,0.00,,---,0.00,0.00,VWS V14.01,2013-09-13 06:30:00,
2013-09-13 02:33:00,65.2,64.6,29.80,WSW,242,0.0,4.0,98,0.00,,---,0.00,0.00,VWS V14.01,2013-09-13 06:33:00,
2013-09-13 02:38:00,65.2,64.6,29.80,WSW,242,0.0,1.0,98,0.00,,---,0.00,0.00,VWS V14.01,2013-09-13 06:38:00,
2013-09-13 02:40:00,65.1,64.5,29.80,WSW,242,0.0,4.0,98,0.00,,---,0.00,0.00,VWS V14.01,2013-09-13 06:40:00,
2013-09-13 02:43:00,65.1,64.5,29.80,WSW,242,0.0,2.0,98,0.00,,---,0.00,0.00,VWS V14.01,2013-09-13 06:43:00,
2013-09-13 02:48:00,65.1,64.5,29.80,WSW,242,0.0,0.0,98,0.00,,---,0.00,0.00,VWS V14.01,2013-09-13 06:48:00,
2013-09-13 02:50:00,65.1,64.5,29.80,WSW,242,1.0,3.0,98,0.00,,---,0.00,0.00,VWS V14.01,2013-09-13 06:50:00,
2013-09-13 02:53:00,65.1,64.5,29.80,WSW,242,0.0,3.0,98,0.00,,---,0.00,0.00,VWS V14.01,2013-09-13 06:53:00,
2013-09-13 02:59:00,65.1,64.5,29.80,WSW,242,0.0,2.0,98,0.00,,---,0.00,0.00,VWS V14.01,2013-09-13 06:59:00,
2013-09-13 03:00:00,65.1,64.5,29.80,WSW,242,0.0,6.0,98,0.00,,---,0.00,0.00,VWS V14.01,2013-09-13 07:00:00,
2013-09-13 03:04:00,65.1,64.5,29.80,WSW,242,2.0,4.0,98,0.00,,---,0.00,0.00,VWS V14.01,2013-09-13 07:04:00,
2013-09-13 03:09:00,65.1,64.5,29.80,WSW,242,3.0,3.0,98,0.00,,---,0.00,0.00,VWS V14.01,2013-09-13 07:09:00,
2013-09-13 03:10:00,65.1,64.5,29.80,WSW,241,1.0,5.0,98,0.00,,---,0.00,0.00,VWS V14.01,2013-09-13 07:10:00,
2013-09-13 03:14:00,65.1,64.5,29.80,WSW,241,0.0,5.0,98,0.00,,---,0.00,0.00,VWS V14.01,2013-09-13 07:14:00,
2013-09-13 03:19:00,65.1,64.5,29.80,WSW,241,0.0,4.0,98,0.00,,---,0.00,0.00,VWS V14.01,2013-09-13 07:19:00,
2013-09-13 03:20:00,65.2,64.6,29.80,WSW,241,0.0,6.0,98,0.00,,---,0.00,0.00,VWS V14.01,2013-09-13 07:20:00,
2013-09-13 03:24:00,65.2,64.6,29.79,WSW,241,3.0,6.0,98,0.00,,---,0.00,0.00,VWS V14.01,2013-09-13 07:24:00,
2013-09-13 03:29:00,65.2,64.6,29.80,WSW,241,0.0,2.0,98,0.00,,---,0.00,0.00,VWS V14.01,2013-09-13 07:29:00,
2013-09-13 03:30:00,65.2,64.6,29.80,WSW,241,0.0,4.0,98,0.00,,---,0.00,0.00,VWS V14.01,2013-09-13 07:30:00,
2013-09-13 03:35:00,65.2,64.6,29.80,WSW,241,1.0,4.0,98,0.00,,---,0.00,0.00,VWS V14.01,2013-09-13 07:35:00,
2013-09-13 03:40:00,65.2,64.6,29.79,WSW,241,0.0,0.0,98,0.00,,---,0.00,0.00,VWS V14.01,2013-09-13 07:40:00,
2013-09-13 03:45:00,65.2,64.6,29.79,WSW,241,4.0,6.0,98,0.00,,---,0.00,0.00,VWS V14.01,2013-09-13 07:45:00,
2013-09-13 03:50:00,65.2,64.6,29.80,WSW,241,0.0,2.0,98,0.00,,---,0.00,0.00,VWS V14.01,2013-09-13 07:50:00,
2013-09-13 03:55:00,65.3,64.7,29.80,WSW,241,0.0,3.0,98,0.00,,---,0.00,0.00,VWS V14.01,2013-09-13 07:55:00,
2013-09-13 04:00:00,65.3,64.7,29.80,WSW,242,0.0,2.0,98,0.00,,---,0.00,0.00,VWS V14.01,2013-09-13 08:00:00,
2013-09-13 04:05:00,65.3,64.7,29.80,SW,236,0.0,4.0,98,0.00,,---,0.00,0.00,VWS V14.01,2013-09-13 08:05:00,
2013-09-13 04:10:00,65.3,64.7,29.80,West,259,0.0,1.0,98,0.00,,---,0.00,0.00,VWS V14.01,2013-09-13 08:10:00,
2013-09-13 04:15:00,65.2,64.6,29.80,West,274,1.0,2.0,98,0.00,,---,0.00,0.00,VWS V14.01,2013-09-13 08:15:00,
2013-09-13 04:20:00,65.1,64.5,29.80,WSW,257,0.0,3.0,98,0.00,,---,0.00,0.00,VWS V14.01,2013-09-13 08:20:00,
2013-09-13 04:21:00,65.2,64.6,29.80,West,274,0.0,1.0,98,0.00,,---,0.00,0.00,VWS V14.01,2013-09-13 08:21:00,
2013-09-13 04:26:00,65.1,64.5,29.80,WSW,255,0.0,3.0,98,0.00,,---,0.00,0.00,VWS V14.01,2013-09-13 08:26:00,
2013-09-13 04:30:00,65.1,64.5,29.80,SSW,212,2.0,6.0,98,0.00,,---,0.00,0.00,VWS V14.01,2013-09-13 08:30:00,
2013-09-13 04:31:00,65.1,64.5,29.80,SW,234,0.0,6.0,98,0.00,,---,0.00,0.00,VWS V14.01,2013-09-13 08:31:00,
2013-09-13 04:36:00,65.1,64.5,29.80,SSW,208,0.0,6.0,98,0.00,,---,0.00,0.00,VWS V14.01,2013-09-13 08:36:00,
2013-09-13 04:40:00,65.1,64.5,29.80,SSW,212,0.0,3.0,98,0.00,,---,0.00,0.00,VWS V14.01,2013-09-13 08:40:00,
2013-09-13 04:41:00,65.1,64.5,29.80,SSW,212,0.0,2.0,98,0.00,,---,0.00,0.00,VWS V14.01,2013-09-13 08:41:00,
2013-09-13 04:46:00,65.1,64.5,29.80,SSW,212,0.0,3.0,98,0.00,,---,0.00,0.00,VWS V14.01,2013-09-13 08:46:00,
2013-09-13 04:50:00,65.0,64.4,29.80,SSW,212,0.0,2.0,98,0.00,,---,0.00,0.00,VWS V14.01,2013-09-13 08:50:00,
2013-09-13 04:51:00,65.1,64.5,29.80,SSW,212,0.0,2.0,98,0.00,,---,0.00,0.00,VWS V14.01,2013-09-13 08:51:00,
2013-09-13 04:56:00,65.0,64.4,29.80,SSW,212,0.0,2.0,98,0.00,,---,0.00,0.00,VWS V14.01,2013-09-13 08:56:00,
2013-09-13 05:00:00,64.7,64.1,29.81,SSW,212,0.0,1.0,98,0.00,,---,0.00,0.00,VWS V14.01,2013-09-13 09:00:00,
2013-09-13 05:01:00,64.9,64.3,29.80,SSW,212,0.0,1.0,98,0.00,,---,0.00,0.00,VWS V14.01,2013-09-13 09:01:00,
2013-09-13 05:06:00,64.7,64.1,29.80,SSW,212,0.0,1.0,98,0.00,,---,0.00,0.00,VWS V14.01,2013-09-13 09:06:00,
2013-09-13 05:10:00,64.4,63.8,29.80,SSW,212,0.0,1.0,98,0.00,,---,0.00,0.00,VWS V14.01,2013-09-13 09:10:00,
2013-09-13 05:11:00,64.6,64.0,29.80,SSW,212,0.0,1.0,98,0.00,,---,0.00,0.00,VWS V14.01,2013-09-13 09:11:00,
2013-09-13 05:16:00,64.5,63.9,29.80,SSW,212,0.0,1.0,98,0.00,,---,0.00,0.00,VWS V14.01,2013-09-13 09:16:00,
2013-09-13 05:20:00,64.4,63.8,29.80,SSW,212,0.0,1.0,98,0.00,,---,0.00,0.00,VWS V14.01,2013-09-13 09:20:00,
2013-09-13 05:21:00,64.4,63.8,29.80,SSW,212,0.0,0.0,98,0.00,,---,0.00,0.00,VWS V14.01,2013-09-13 09:21:00,
2013-09-13 05:27:00,64.4,63.8,29.80,SSW,212,0.0,1.0,98,0.00,,---,0.00,0.00,VWS V14.01,2013-09-13 09:27:00,
2013-09-13 05:30:00,64.4,63.8,29.80,SSW,212,0.0,3.0,98,0.00,,---,0.00,0.00,VWS V14.01,2013-09-13 09:30:00,
2013-09-13 05:32:00,64.4,63.8,29.80,SSW,212,1.0,2.0,98,0.00,,---,0.00,0.00,VWS V14.01,2013-09-13 09:32:00,
2013-09-13 05:37:00,64.4,63.8,29.80,SSW,212,0.0,3.0,98,0.00,,---,0.00,0.00,VWS V14.01,2013-09-13 09:37:00,
2013-09-13 05:40:00,64.2,63.6,29.80,SSW,212,0.0,1.0,98,0.00,,---,0.00,0.00,VWS V14.01,2013-09-13 09:40:00,
2013-09-13 05:42:00,64.4,63.8,29.80,SSW,212,0.0,1.0,98,0.00,,---,0.00,0.00,VWS V14.01,2013-09-13 09:42:00,
2013-09-13 05:47:00,64.2,63.6,29.80,SSW,212,0.0,1.0,98,0.00,,---,0.00,0.00,VWS V14.01,2013-09-13 09:47:00,
2013-09-13 05:50:00,63.8,62.9,29.80,SSW,212,0.0,1.0,97,0.00,,---,0.00,0.00,VWS V14.01,2013-09-13 09:50:00,
2013-09-13 05:52:00,64.0,63.4,29.80,SSW,212,0.0,1.0,98,0.00,,---,0.00,0.00,VWS V14.01,2013-09-13 09:52:00,
2013-09-13 05:57:00,63.8,62.9,29.80,SSW,212,0.0,1.0,97,0.00,,---,0.00,0.00,VWS V14.01,2013-09-13 09:57:00,
2013-09-13 06:00:00,63.5,62.6,29.80,SSW,212,0.0,1.0,97,0.00,,---,0.00,0.00,VWS V14.01,2013-09-13 10:00:00,
2013-09-13 06:02:00,63.6,62.7,29.80,SSW,212,0.0,1.0,97,0.00,,---,0.00,0.00,VWS V14.01,2013-09-13 10:02:00,
2013-09-13 06:07:00,63.5,62.6,29.80,SSW,212,0.0,1.0,97,0.00,,---,0.00,0.00,VWS V14.01,2013-09-13 10:07:00,
2013-09-13 06:10:00,63.1,62.2,29.80,SSW,212,0.0,0.0,97,0.00,,---,0.00,0.00,VWS V14.01,2013-09-13 10:10:00,
2013-09-13 06:12:00,63.3,62.4,29.80,SSW,212,0.0,0.0,97,0.00,,---,0.00,0.00,VWS V14.01,2013-09-13 10:12:00,
2013-09-13 06:18:00,63.1,62.2,29.80,SSW,212,0.0,0.0,97,0.00,,---,0.00,0.00,VWS V14.01,2013-09-13 10:18:00,
2013-09-13 06:20:00,62.8,61.9,29.81,SSW,212,0.0,0.0,97,0.00,,---,0.00,0.00,VWS V14.01,2013-09-13 10:20:00,
2013-09-13 06:23:00,63.0,62.1,29.81,SSW,212,0.0,0.0,97,0.00,,---,0.00,0.00,VWS V14.01,2013-09-13 10:23:00,
2013-09-13 06:28:00,62.8,61.9,29.81,SSW,212,0.0,0.0,97,0.00,,---,0.00,0.00,VWS V14.01,2013-09-13 10:28:00,
2013-09-13 06:30:00,62.5,61.6,29.81,SSW,212,0.0,0.0,97,0.00,,---,0.00,0.00,VWS V14.01,2013-09-13 10:30:00,
2013-09-13 06:33:00,62.6,61.7,29.81,SSW,212,0.0,0.0,97,0.00,,---,0.00,0.00,VWS V14.01,2013-09-13 10:33:00,
2013-09-13 06:38:00,62.5,61.6,29.81,SSW,211,0.0,0.0,97,0.00,,---,0.00,0.00,VWS V14.01,2013-09-13 10:38:00,
2013-09-13 06:40:00,62.3,61.4,29.81,SSW,212,0.0,0.0,97,0.00,,---,0.00,0.00,VWS V14.01,2013-09-13 10:40:00,
2013-09-13 06:43:00,62.4,61.5,29.81,SSW,212,0.0,0.0,97,0.00,,---,0.00,0.00,VWS V14.01,2013-09-13 10:43:00,
2013-09-13 06:48:00,62.3,61.4,29.81,SSW,212,0.0,0.0,97,0.00,,---,0.00,0.00,VWS V14.01,2013-09-13 10:48:00,
2013-09-13 06:50:00,62.3,61.7,29.81,SSW,212,0.0,0.0,98,0.00,,---,0.00,0.00,VWS V14.01,2013-09-13 10:50:00,
2013-09-13 06:53:00,62.3,61.7,29.81,SSW,212,0.0,0.0,98,0.00,,---,0.00,0.00,VWS V14.01,2013-09-13 10:53:00,
2013-09-13 06:58:00,62.3,61.7,29.81,SSW,212,0.0,0.0,98,0.00,,---,0.00,0.00,VWS V14.01,2013-09-13 10:58:00,
2013-09-13 07:00:00,62.3,61.7,29.81,SSW,212,0.0,0.0,98,0.00,,---,0.00,0.00,VWS V14.01,2013-09-13 11:00:00,
2013-09-13 07:03:00,62.2,61.6,29.81,SSW,212,0.0,0.0,98,0.00,,---,0.00,0.00,VWS V14.01,2013-09-13 11:03:00,
2013-09-13 07:08:00,62.3,61.7,29.81,SSW,212,0.0,0.0,98,0.00,,---,0.00,0.00,VWS V14.01,2013-09-13 11:08:00,
2013-09-13 07:10:00,62.4,61.8,29.81,SSW,212,0.0,0.0,98,0.00,,---,0.00,5.00,VWS V14.01,2013-09-13 11:10:00,
2013-09-13 07:13:00,62.4,61.8,29.81,SSW,212,0.0,0.0,98,0.00,,---,0.00,5.00,VWS V14.01,2013-09-13 11:13:00,
2013-09-13 07:19:00,62.4,61.8,29.81,SSW,212,0.0,0.0,98,0.00,,---,0.00,7.00,VWS V14.01,2013-09-13 11:19:00,
2013-09-13 07:20:00,62.8,62.2,29.81,SSW,212,0.0,2.0,98,0.01,,---,0.01,11.00,VWS V14.01,2013-09-13 11:20:00,
2013-09-13 07:24:00,62.6,62.0,29.81,SSW,212,0.0,2.0,98,0.00,,---,0.00,9.00,VWS V14.01,2013-09-13 11:24:00,
2013-09-13 07:29:00,62.8,62.2,29.81,SSW,211,0.0,0.0,98,0.01,,---,0.01,12.00,VWS V14.01,2013-09-13 11:29:00,
2013-09-13 07:30:00,63.1,62.5,29.81,SSW,212,0.0,2.0,98,0.01,,---,0.01,18.00,VWS V14.01,2013-09-13 11:30:00,
2013-09-13 07:34:00,63.1,62.5,29.81,SSW,212,0.0,1.0,98,0.01,,---,0.01,14.00,VWS V14.01,2013-09-13 11:34:00,
2013-09-13 07:39:00,63.1,62.5,29.81,SSW,212,0.0,2.0,98,0.01,,---,0.01,18.00,VWS V14.01,2013-09-13 11:39:00,
2013-09-13 07:40:00,63.2,62.6,29.82,SSW,212,0.0,2.0,98,0.01,,---,0.01,28.00,VWS V14.01,2013-09-13 11:40:00,
2013-09-13 07:44:00,63.2,62.6,29.81,SSW,212,0.0,2.0,98,0.01,,---,0.01,21.00,VWS V14.01,2013-09-13 11:44:00,
2013-09-13 07:49:00,63.2,62.6,29.82,SSW,212,0.0,0.0,98,0.01,,---,0.01,26.00,VWS V14.01,2013-09-13 11:49:00,
2013-09-13 07:50:00,63.6,63.0,29.82,SSW,212,0.0,2.0,98,0.01,,---,0.01,26.00,VWS V14.01,2013-09-13 11:50:00,
2013-09-13 07:54:00,63.4,62.8,29.82,SSW,212,0.0,2.0,98,0.01,,---,0.01,21.00,VWS V14.01,2013-09-13 11:54:00,
2013-09-13 07:59:00,63.6,63.0,29.82,SSW,212,0.0,2.0,98,0.01,,---,0.01,28.00,VWS V14.01,2013-09-13 11:59:00,
2013-09-13 08:00:00,63.8,63.2,29.82,SSW,212,0.0,2.0,98,0.01,,---,0.01,25.00,VWS V14.01,2013-09-13 12:00:00,
2013-09-13 08:04:00,63.7,63.1,29.82,SSW,212,1.0,2.0,98,0.01,,---,0.01,25.00,VWS V14.01,2013-09-13 12:04:00,
2013-09-13 08:09:00,63.9,63.3,29.82,SSW,212,0.0,0.0,98,0.01,,---,0.01,25.00,VWS V14.01,2013-09-13 12:09:00,
2013-09-13 08:10:00,64.0,63.4,29.82,SSW,212,0.0,2.0,98,0.01,,---,0.01,49.00,VWS V14.01,2013-09-13 12:10:00,
2013-09-13 08:14:00,64.0,63.4,29.82,SSW,211,0.0,2.0,98,0.01,,---,0.01,30.00,VWS V14.01,2013-09-13 12:14:00,
2013-09-13 08:20:00,64.0,63.4,29.82,SSW,212,0.0,1.0,98,0.01,,---,0.01,53.00,VWS V14.01,2013-09-13 12:20:00,
2013-09-13 08:25:00,64.2,63.9,29.82,SSW,212,2.0,3.0,99,0.01,,---,0.01,97.00,VWS V14.01,2013-09-13 12:25:00,
2013-09-13 08:30:00,64.4,64.1,29.82,SSW,212,1.0,3.0,99,0.00,,---,0.01,97.00,VWS V14.01,2013-09-13 12:30:00,
2013-09-13 08:35:00,64.5,63.9,29.82,SSW,212,0.0,3.0,98,0.00,,---,0.01,86.00,VWS V14.01,2013-09-13 12:35:00,
2013-09-13 08:40:00,64.6,64.0,29.82,SSW,212,4.0,4.0,98,0.00,,---,0.01,114.00,VWS V14.01,2013-09-13 12:40:00,
2013-09-13 08:45:00,64.6,64.0,29.82,SSW,212,0.0,4.0,98,0.00,,---,0.01,113.00,VWS V14.01,2013-09-13 12:45:00,
2013-09-13 08:50:00,64.7,64.1,29.82,SSW,212,2.0,2.0,98,0.00,,---,0.01,98.00,VWS V14.01,2013-09-13 12:50:00,
2013-09-13 08:55:00,64.7,64.1,29.82,SW,221,2.0,5.0,98,0.00,,---,0.01,109.00,VWS V14.01,2013-09-13 12:55:00,
2013-09-13 09:00:00,64.7,64.1,29.82,SW,236,3.0,6.0,98,0.00,,---,0.01,148.00,VWS V14.01,2013-09-13 13:00:00,
2013-09-13 09:05:00,64.7,64.1,29.82,SW,221,0.0,6.0,98,0.00,,---,0.01,128.00,VWS V14.01,2013-09-13 13:05:00,
2013-09-13 09:10:00,64.8,64.2,29.82,SW,215,3.0,8.0,98,0.00,,---,0.01,225.00,VWS V14.01,2013-09-13 13:10:00,
2013-09-13 09:16:00,65.0,64.4,29.82,SW,221,0.0,8.0,98,0.00,,---,0.01,72.00,VWS V14.01,2013-09-13 13:16:00,
2013-09-13 09:20:00,65.0,64.1,29.82,SSW,211,1.0,4.0,97,0.00,,---,0.01,127.00,VWS V14.01,2013-09-13 13:20:00,
2013-09-13 09:21:00,64.9,64.3,29.82,SW,227,1.0,4.0,98,0.00,,---,0.01,121.00,VWS V14.01,2013-09-13 13:21:00,
2013-09-13 09:26:00,65.0,64.1,29.82,SW,218,2.0,4.0,97,0.00,,---,0.01,127.00,VWS V14.01,2013-09-13 13:26:00,
2013-09-13 09:30:00,65.3,64.1,29.82,WSW,242,0.0,5.0,96,0.00,,---,0.01,123.00,VWS V14.01,2013-09-13 13:30:00,
2013-09-13 09:31:00,65.2,64.3,29.82,SW,221,2.0,5.0,97,0.00,,---,0.01,127.00,VWS V14.01,2013-09-13 13:31:00,
2013-09-13 09:36:00,65.3,64.4,29.82,SW,227,2.0,5.0,97,0.00,,---,0.01,371.00,VWS V14.01,2013-09-13 13:36:00,
2013-09-13 09:40:00,65.5,64.0,29.82,SW,232,1.0,4.0,95,0.00,,---,0.01,137.00,VWS V14.01,2013-09-13 13:40:00,
2013-09-13 09:41:00,65.3,64.1,29.82,WSW,240,4.0,4.0,96,0.00,,---,0.01,383.00,VWS V14.01,2013-09-13 13:41:00,
2013-09-13 09:46:00,65.5,64.0,29.82,SW,222,0.0,4.0,95,0.00,,---,0.01,137.00,VWS V14.01,2013-09-13 13:46:00,
2013-09-13 09:50:00,66.6,64.8,29.82,NE,45,0.0,3.0,94,0.00,,---,0.01,211.00,VWS V14.01,2013-09-13 13:50:00,
2013-09-13 09:51:00,65.8,64.3,29.82,NNE,30,0.0,3.0,95,0.00,,---,0.01,441.00,VWS V14.01,2013-09-13 13:51:00,
2013-09-13 09:56:00,66.5,65.3,29.82,NE,44,0.0,3.0,96,0.00,,---,0.01,214.00,VWS V14.01,2013-09-13 13:56:00,
2013-09-13 10:00:00,67.2,64.5,29.82,SW,226,0.0,5.0,91,0.00,,---,0.01,193.00,VWS V14.01,2013-09-13 14:00:00,
2013-09-13 10:01:00,66.9,64.8,29.82,ESE,119,0.0,5.0,93,0.00,,---,0.01,172.00,VWS V14.01,2013-09-13 14:01:00,
2013-09-13 10:06:00,67.2,64.8,29.82,SW,226,0.0,5.0,92,0.00,,---,0.01,193.00,VWS V14.01,2013-09-13 14:06:00,
2013-09-13 10:10:00,67.6,63.9,29.83,SE,140,1.0,4.0,88,0.00,,---,0.01,538.00,VWS V14.01,2013-09-13 14:10:00,
2013-09-13 10:11:00,67.2,64.2,29.82,South,171,0.0,2.0,90,0.00,,---,0.01,485.00,VWS V14.01,2013-09-13 14:11:00,
2013-09-13 10:17:00,67.6,64.2,29.82,NNW,327,2.0,4.0,89,0.00,,---,0.01,533.00,VWS V14.01,2013-09-13 14:17:00,
2013-09-13 10:20:00,68.4,64.1,29.82,WSW,248,2.0,6.0,86,0.00,,---,0.01,169.00,VWS V14.01,2013-09-13 14:20:00,
2013-09-13 10:22:00,67.9,64.2,29.82,North,360,0.0,4.0,88,0.00,,---,0.01,629.00,VWS V14.01,2013-09-13 14:22:00,
2013-09-13 10:27:00,68.3,64.0,29.82,North,355,0.0,6.0,86,0.00,,---,0.01,169.00,VWS V14.01,2013-09-13 14:27:00,
2013-09-13 10:30:00,67.9,62.9,29.83,ENE,59,0.0,8.0,84,0.00,,---,0.01,585.00,VWS V14.01,2013-09-13 14:30:00,
2013-09-13 10:32:00,68.4,63.4,29.83,WNW,298,1.0,2.0,84,0.00,,---,0.01,88.00,VWS V14.01,2013-09-13 14:32:00,
2013-09-13 10:37:00,68.0,63.0,29.83,SSE,161,0.0,8.0,84,0.00,,---,0.01,582.00,VWS V14.01,2013-09-13 14:37:00,
2013-09-13 10:40:00,69.0,64.6,29.82,NE,55,1.0,7.0,86,0.00,,---,0.01,640.00,VWS V14.01,2013-09-13 14:40:00,
2013-09-13 10:42:00,68.0,63.0,29.82,WSW,250,0.0,7.0,84,0.00,,---,0.01,682.00,VWS V14.01,2013-09-13 14:42:00,
2013-09-13 10:47:00,68.9,64.9,29.82,NE,49,0.0,7.0,87,0.00,,---,0.01,587.00,VWS V14.01,2013-09-13 14:47:00,
2013-09-13 10:50:00,70.1,64.7,29.82,NE,43,0.0,6.0,83,0.00,,---,0.01,775.00,VWS V14.01,2013-09-13 14:50:00,
2013-09-13 10:52:00,69.5,63.1,29.82,SW,216,4.0,6.0,80,0.00,,---,0.01,640.00,VWS V14.01,2013-09-13 14:52:00,
2013-09-13 10:57:00,70.0,64.6,29.82,NE,42,0.0,6.0,83,0.00,,---,0.01,775.00,VWS V14.01,2013-09-13 14:57:00,
2013-09-13 11:00:00,70.5,64.0,29.82,NE,48,0.0,5.0,80,0.00,,---,0.01,728.00,VWS V14.01,2013-09-13 15:00:00,
2013-09-13 11:02:00,70.4,64.3,29.82,SE,142,0.0,5.0,81,0.00,,---,0.01,195.00,VWS V14.01,2013-09-13 15:02:00,
2013-09-13 11:07:00,70.5,63.7,29.82,NE,47,0.0,5.0,79,0.00,,---,0.01,728.00,VWS V14.01,2013-09-13 15:07:00,
2013-09-13 11:10:00,70.4,62.1,29.82,SW,217,3.0,6.0,75,0.00,,---,0.01,708.00,VWS V14.01,2013-09-13 15:10:00,
2013-09-13 11:13:00,70.6,63.0,29.82,NNE,28,3.0,4.0,77,0.00,,---,0.01,749.00,VWS V14.01,2013-09-13 15:13:00,
2013-09-13 11:18:00,70.4,62.1,29.82,SSW,213,3.0,6.0,75,0.00,,---,0.01,708.00,VWS V14.01,2013-09-13 15:18:00,
2013-09-13 11:20:00,71.4,63.8,29.82,SW,234,0.0,5.0,77,0.00,,---,0.01,853.00,VWS V14.01,2013-09-13 15:20:00,
2013-09-13 11:23:00,70.9,63.0,29.82,North,360,1.0,4.0,76,0.00,,---,0.01,770.00,VWS V14.01,2013-09-13 15:23:00,
2013-09-13 11:28:00,71.4,63.8,29.82,SW,234,0.0,5.0,77,0.00,,---,0.01,853.00,VWS V14.01,2013-09-13 15:28:00,
2013-09-13 11:30:00,71.2,60.9,29.82,WSW,244,0.0,8.0,70,0.00,,---,0.01,163.00,VWS V14.01,2013-09-13 15:30:00,
2013-09-13 11:33:00,71.9,62.4,29.82,NNE,14,2.0,6.0,72,0.00,,---,0.01,169.00,VWS V14.01,2013-09-13 15:33:00,
2013-09-13 11:38:00,71.2,60.9,29.83,WSW,244,2.0,2.0,70,0.00,,---,0.01,158.00,VWS V14.01,2013-09-13 15:38:00,
2013-09-13 11:40:00,70.2,60.0,29.83,NE,54,0.0,4.0,70,0.00,,---,0.01,197.00,VWS V14.01,2013-09-13 15:40:00,
2013-09-13 11:43:00,70.6,60.8,29.83,North,355,0.0,3.0,71,0.00,,---,0.01,216.00,VWS V14.01,2013-09-13 15:43:00,
2013-09-13 11:48:00,70.2,60.8,29.83,NE,54,0.0,0.0,72,0.00,,---,0.01,197.00,VWS V14.01,2013-09-13 15:48:00,
2013-09-13 11:50:00,70.1,60.3,29.83,NW,325,0.0,4.0,71,0.00,,---,0.01,229.00,VWS V14.01,2013-09-13 15:50:00,
2013-09-13 11:53:00,70.1,60.3,29.83,ENE,57,2.0,2.0,71,0.00,,---,0.01,566.00,VWS V14.01,2013-09-13 15:53:00,
2013-09-13 11:58:00,70.1,59.1,29.83,SW,227,1.0,5.0,68,0.00,,---,0.01,229.00,VWS V14.01,2013-09-13 15:58:00,
2013-09-13 12:00:00,70.8,60.1,29.83,West,268,0.0,7.0,69,0.00,,---,0.01,846.00,VWS V14.01,2013-09-13 16:00:00,
2013-09-13 12:03:00,70.4,59.3,29.83,West,260,0.0,7.0,68,0.00,,---,0.01,933.00,VWS V14.01,2013-09-13 16:03:00,
2013-09-13 12:08:00,70.9,61.0,29.83,West,268,0.0,0.0,71,0.00,,---,0.01,838.00,VWS V14.01,2013-09-13 16:08:00,
2013-09-13 12:10:00,72.1,61.8,29.83,NE,43,0.0,4.0,70,0.00,,---,0.01,954.00,VWS V14.01,2013-09-13 16:10:00,
2013-09-13 12:14:00,71.5,60.0,29.83,South,182,1.0,4.0,67,0.00,,---,0.01,889.00,VWS V14.01,2013-09-13 16:14:00,
2013-09-13 12:19:00,72.2,61.1,29.83,NE,42,1.0,1.0,68,0.00,,---,0.01,947.00,VWS V14.01,2013-09-13 16:19:00,
2013-09-13 12:20:00,73.1,59.3,29.83,ENE,71,0.0,6.0,62,0.00,,---,0.01,835.00,VWS V14.01,2013-09-13 16:20:00,
2013-09-13 12:24:00,72.8,61.6,29.83,ENE,57,2.0,6.0,68,0.00,,---,0.01,875.00,VWS V14.01,2013-09-13 16:24:00,
2013-09-13 12:29:00,73.1,59.8,29.83,NE,49,0.0,2.0,63,0.00,,---,0.01,833.00,VWS V14.01,2013-09-13 16:29:00,
2013-09-13 12:30:00,73.5,60.6,29.83,NE,53,0.0,9.0,64,0.00,,---,0.01,872.00,VWS V14.01,2013-09-13 16:30:00,
2013-09-13 12:34:00,73.4,58.7,29.83,NE,43,2.0,9.0,60,0.00,,---,0.01,854.00,VWS V14.01,2013-09-13 16:34:00,
2013-09-13 12:39:00,73.5,60.6,29.82,NE,53,0.0,1.0,64,0.00,,---,0.01,872.00,VWS V14.01,2013-09-13 16:39:00,
2013-09-13 12:40:00,73.4,61.8,29.83,NE,55,1.0,4.0,67,0.00,,---,0.01,916.00,VWS V14.01,2013-09-13 16:40:00,
2013-09-13 12:44:00,73.3,58.6,29.83,West,279,0.0,4.0,60,0.00,,---,0.01,918.00,VWS V14.01,2013-09-13 16:44:00,
2013-09-13 12:49:00,73.6,62.4,29.83,NE,51,0.0,5.0,68,0.00,,---,0.01,926.00,VWS V14.01,2013-09-13 16:49:00,
2013-09-13 12:50:00,74.3,58.1,29.83,NE,55,0.0,5.0,57,0.00,,---,0.01,290.00,VWS V14.01,2013-09-13 16:50:00,
2013-09-13 12:54:00,74.2,61.7,29.83,ENE,68,0.0,5.0,65,0.00,,---,0.01,983.00,VWS V14.01,2013-09-13 16:54:00,
2013-09-13 12:59:00,74.1,58.4,29.83,ENE,57,0.0,1.0,58,0.00,,---,0.01,1130.00,VWS V14.01,2013-09-13 16:59:00,
2013-09-13 13:00:00,73.1,58.4,29.83,SW,221,2.0,5.0,60,0.00,,---,0.01,134.00,VWS V14.01,2013-09-13 17:00:00,
2013-09-13 13:05:00,73.7,60.8,29.83,SSE,150,5.0,5.0,64,0.00,,---,0.01,167.00,VWS V14.01,2013-09-13 17:05:00,
2013-09-13 13:10:00,72.5,57.4,29.83,SW,227,0.0,6.0,59,0.00,,---,0.01,132.00,VWS V14.01,2013-09-13 17:10:00,
2013-09-13 13:15:00,71.8,59.0,29.83,NNE,17,0.0,6.0,64,0.00,,---,0.01,909.00,VWS V14.01,2013-09-13 17:15:00,
2013-09-13 13:20:00,72.0,57.8,29.82,NNW,327,0.0,4.0,61,0.00,,---,0.01,905.00,VWS V14.01,2013-09-13 17:20:00,
2013-09-13 13:25:00,72.7,58.9,29.82,ENE,57,0.0,4.0,62,0.00,,---,0.01,963.00,VWS V14.01,2013-09-13 17:25:00,
2013-09-13 13:30:00,73.6,58.4,29.83,West,274,0.0,9.0,59,0.00,,---,0.01,1069.00,VWS V14.01,2013-09-13 17:30:00,
2013-09-13 13:35:00,73.0,56.9,29.82,WSW,256,0.0,9.0,57,0.00,,---,0.01,237.00,VWS V14.01,2013-09-13 17:35:00,
2013-09-13 13:40:00,72.3,58.1,29.82,ENE,69,0.0,2.0,61,0.00,,---,0.01,151.00,VWS V14.01,2013-09-13 17:40:00,
2013-09-13 13:45:00,71.6,56.5,29.82,NNE,14,0.0,3.0,59,0.00,,---,0.01,944.00,VWS V14.01,2013-09-13 17:45:00,
2013-09-13 13:50:00,72.4,56.8,29.82,WSW,238,0.0,4.0,58,0.00,,---,0.01,928.00,VWS V14.01,2013-09-13 17:50:00,
2013-09-13 13:51:00,71.6,57.9,29.82,SW,222,0.0,4.0,62,0.00,,---,0.01,911.00,VWS V14.01,2013-09-13 17:51:00,
2013-09-13 13:56:00,72.1,56.0,29.82,WSW,242,0.0,4.0,57,0.00,,---,0.01,914.00,VWS V14.01,2013-09-13 17:56:00,
2013-09-13 14:00:00,73.6,56.5,29.82,NNE,24,0.0,4.0,55,0.00,,---,0.01,963.00,VWS V14.01,2013-09-13 18:00:00,
2013-09-13 14:01:00,72.8,58.6,29.82,SE,139,0.0,2.0,61,0.00,,---,0.01,954.00,VWS V14.01,2013-09-13 18:01:00,
2013-09-13 14:06:00,73.5,55.9,29.82,NNW,346,0.0,4.0,54,0.00,,---,0.01,997.00,VWS V14.01,2013-09-13 18:06:00,
2013-09-13 14:10:00,74.3,57.1,29.82,ENE,68,0.0,6.0,55,0.00,,---,0.01,227.00,VWS V14.01,2013-09-13 18:10:00,
2013-09-13 14:11:00,73.9,57.7,29.82,NNE,18,0.0,6.0,57,0.00,,---,0.01,984.00,VWS V14.01,2013-09-13 18:11:00,
2013-09-13 14:16:00,74.3,58.1,29.82,ENE,71,0.0,6.0,57,0.00,,---,0.01,225.00,VWS V14.01,2013-09-13 18:16:00,
2013-09-13 14:20:00,74.0,57.3,29.82,NE,53,1.0,5.0,56,0.00,,---,0.01,958.00,VWS V14.01,2013-09-13 18:20:00,
2013-09-13 14:21:00,74.0,57.3,29.82,NE,51,0.0,5.0,56,0.00,,---,0.01,327.00,VWS V14.01,2013-09-13 18:21:00,
2013-09-13 14:26:00,73.9,56.7,29.82,NE,51,2.0,5.0,55,0.00,,---,0.01,958.00,VWS V14.01,2013-09-13 18:26:00,
2013-09-13 14:30:00,74.6,55.3,29.82,SW,218,1.0,5.0,51,0.00,,---,0.01,921.00,VWS V14.01,2013-09-13 18:30:00,
2013-09-13 14:31:00,74.2,57.5,29.82,NE,55,0.0,5.0,56,0.00,,---,0.01,960.00,VWS V14.01,2013-09-13 18:31:00,
2013-09-13 14:37:00,74.6,55.8,29.82,SW,231,1.0,5.0,52,0.00,,---,0.01,914.00,VWS V14.01,2013-09-13 18:37:00,
2013-09-13 14:40:00,73.9,55.2,29.82,NE,42,0.0,4.0,52,0.00,,---,0.01,874.00,VWS V14.01,2013-09-13 18:40:00,
2013-09-13 14:42:00,74.4,55.1,29.82,NW,310,0.0,4.0,51,0.00,,---,0.01,928.00,VWS V14.01,2013-09-13 18:42:00,
2013-09-13 14:47:00,73.9,55.2,29.82,West,281,1.0,4.0,52,0.00,,---,0.01,882.00,VWS V14.01,2013-09-13 18:47:00,
2013-09-13 14:50:00,75.0,52.8,29.81,NW,315,0.0,6.0,46,0.00,,---,0.01,867.00,VWS V14.01,2013-09-13 18:50:00,
2013-09-13 14:52:00,74.3,58.1,29.81,NE,53,0.0,3.0,57,0.00,,---,0.01,861.00,VWS V14.01,2013-09-13 18:52:00,
2013-09-13 14:57:00,75.0,55.1,29.81,NNW,338,5.0,5.0,50,0.00,,---,0.01,867.00,VWS V14.01,2013-09-13 18:57:00,
2013-09-13 15:00:00,75.1,55.2,29.81,WNW,298,0.0,6.0,50,0.00,,---,0.01,854.00,VWS V14.01,2013-09-13 19:00:00,
2013-09-13 15:02:00,75.0,56.7,29.81,NE,42,1.0,6.0,53,0.00,,---,0.01,853.00,VWS V14.01,2013-09-13 19:02:00,
2013-09-13 15:07:00,75.1,53.5,29.81,WNW,298,0.0,6.0,47,0.00,,---,0.01,854.00,VWS V14.01,2013-09-13 19:07:00,
2013-09-13 15:10:00,74.8,54.9,29.81,ENE,57,3.0,5.0,50,0.00,,---,0.01,844.00,VWS V14.01,2013-09-13 19:10:00,
2013-09-13 15:12:00,75.0,56.2,29.81,NNE,25,1.0,5.0,52,0.00,,---,0.01,831.00,VWS V14.01,2013-09-13 19:12:00,
2013-09-13 15:17:00,74.8,54.9,29.81,North,355,0.0,5.0,50,0.00,,---,0.01,844.00,VWS V14.01,2013-09-13 19:17:00,
2013-09-13 15:20:00,75.1,56.3,29.81,ENE,59,0.0,5.0,52,0.00,,---,0.01,854.00,VWS V14.01,2013-09-13 19:20:00,
2013-09-13 15:23:00,75.0,55.7,29.81,NW,317,0.0,5.0,51,0.00,,---,0.01,828.00,VWS V14.01,2013-09-13 19:23:00,
2013-09-13 15:28:00,75.1,56.3,29.81,ENE,59,0.0,5.0,52,0.00,,---,0.01,854.00,VWS V14.01,2013-09-13 19:28:00,
2013-09-13 15:30:00,74.3,56.1,29.81,SE,134,0.0,4.0,53,0.00,,---,0.01,877.00,VWS V14.01,2013-09-13 19:30:00,
2013-09-13 15:33:00,74.8,56.5,29.81,East,98,0.0,4.0,53,0.00,,---,0.01,134.00,VWS V14.01,2013-09-13 19:33:00,
2013-09-13 15:38:00,74.3,56.1,29.81,SE,134,0.0,0.0,53,0.00,,---,0.01,877.00,VWS V14.01,2013-09-13 19:38:00,
2013-09-13 15:40:00,73.5,56.4,29.81,NE,55,0.0,5.0,55,0.00,,---,0.01,803.00,VWS V14.01,2013-09-13 19:40:00,
2013-09-13 15:43:00,73.6,55.4,29.81,ENE,57,0.0,5.0,53,0.00,,---,0.01,828.00,VWS V14.01,2013-09-13 19:43:00,
2013-09-13 15:48:00,73.5,58.8,29.81,NE,55,1.0,1.0,60,0.00,,---,0.01,795.00,VWS V14.01,2013-09-13 19:48:00,
2013-09-13 15:50:00,74.3,56.1,29.82,NE,55,2.0,6.0,53,0.00,,---,0.01,765.00,VWS V14.01,2013-09-13 19:50:00,
2013-09-13 15:53:00,74.2,55.5,29.81,NE,53,0.0,2.0,52,0.00,,---,0.01,775.00,VWS V14.01,2013-09-13 19:53:00,
2013-09-13 15:58:00,74.2,53.3,29.82,NE,44,2.0,6.0,48,0.00,,---,0.01,765.00,VWS V14.01,2013-09-13 19:58:00,
2013-09-13 16:00:00,73.7,52.8,29.82,NW,324,1.0,6.0,48,0.00,,---,0.01,726.00,VWS V14.01,2013-09-13 20:00:00,
2013-09-13 16:04:00,73.8,52.9,29.82,ENE,73,0.0,6.0,48,0.00,,---,0.01,744.00,VWS V14.01,2013-09-13 20:04:00,
2013-09-13 16:09:00,73.7,53.9,29.81,NW,324,0.0,1.0,50,0.00,,---,0.01,722.00,VWS V14.01,2013-09-13 20:09:00,
2013-09-13 16:10:00,74.5,54.1,29.82,NE,40,0.0,5.0,49,0.00,,---,0.01,425.00,VWS V14.01,2013-09-13 20:10:00,
2013-09-13 16:14:00,74.2,54.9,29.82,ENE,58,0.0,5.0,51,0.00,,---,0.01,707.00,VWS V14.01,2013-09-13 20:14:00,
2013-09-13 16:19:00,74.6,53.6,29.81,NE,38,0.0,1.0,48,0.00,,---,0.01,360.00,VWS V14.01,2013-09-13 20:19:00,
2013-09-13 16:20:00,74.4,56.7,29.82,ESE,116,0.0,7.0,54,0.00,,---,0.01,670.00,VWS V14.01,2013-09-13 20:20:00,
2013-09-13 16:24:00,74.4,56.2,29.82,NE,50,2.0,7.0,53,0.00,,---,0.01,668.00,VWS V14.01,2013-09-13 20:24:00,
2013-09-13 16:29:00,74.4,54.0,29.82,NE,46,0.0,2.0,49,0.00,,---,0.01,668.00,VWS V14.01,2013-09-13 20:29:00,
2013-09-13 16:30:00,74.9,53.9,29.82,East,82,0.0,3.0,48,0.00,,---,0.01,645.00,VWS V14.01,2013-09-13 20:30:00,
2013-09-13 16:34:00,74.7,55.9,29.82,ENE,64,0.0,3.0,52,0.00,,---,0.01,663.00,VWS V14.01,2013-09-13 20:34:00,
2013-09-13 16:39:00,74.9,52.2,29.82,ENE,69,1.0,3.0,45,0.00,,---,0.01,643.00,VWS V14.01,2013-09-13 20:39:00,
2013-09-13 16:40:00,74.2,53.8,29.82,NE,53,0.0,7.0,49,0.00,,---,0.01,640.00,VWS V14.01,2013-09-13 20:40:00,
2013-09-13 16:44:00,74.3,52.8,29.82,ENE,67,0.0,7.0,47,0.00,,---,0.01,640.00,VWS V14.01,2013-09-13 20:44:00,
2013-09-13 16:50:00,74.2,52.1,29.82,NE,48,0.0,4.0,46,0.00,,---,0.01,635.00,VWS V14.01,2013-09-13 20:50:00,
2013-09-13 16:55:00,74.2,54.9,29.82,ENE,72,0.0,4.0,51,0.00,,---,0.01,596.00,VWS V14.01,2013-09-13 20:55:00,
2013-09-13 17:00:00,74.7,53.7,29.82,North,9,1.0,3.0,48,0.00,,---,0.01,584.00,VWS V14.01,2013-09-13 21:00:00,
2013-09-13 17:05:00,75.1,53.5,29.82,NE,36,0.0,3.0,47,0.00,,---,0.01,571.00,VWS V14.01,2013-09-13 21:05:00,
2013-09-13 17:10:00,74.9,53.9,29.82,WSW,257,0.0,2.0,48,0.00,,---,0.01,555.00,VWS V14.01,2013-09-13 21:10:00,
2013-09-13 17:15:00,75.0,56.7,29.82,West,262,1.0,2.0,53,0.00,,---,0.01,545.00,VWS V14.01,2013-09-13 21:15:00,
2013-09-13 17:20:00,75.3,53.7,29.82,NNW,327,0.0,5.0,47,0.00,,---,0.01,541.00,VWS V14.01,2013-09-13 21:20:00,
2013-09-13 17:25:00,75.2,55.8,29.82,ENE,57,0.0,5.0,51,0.00,,---,0.01,527.00,VWS V14.01,2013-09-13 21:25:00,
2013-09-13 17:30:00,75.1,56.3,29.82,NW,320,0.0,3.0,52,0.00,,---,0.01,519.00,VWS V14.01,2013-09-13 21:30:00,
2013-09-13 17:36:00,75.1,54.7,29.82,NE,42,1.0,3.0,49,0.00,,---,0.01,468.00,VWS V14.01,2013-09-13 21:36:00,
2013-09-13 17:40:00,74.9,56.1,29.82,NNW,334,1.0,3.0,52,0.00,,---,0.01,446.00,VWS V14.01,2013-09-13 21:40:00,
2013-09-13 17:41:00,75.0,55.7,29.82,NE,54,0.0,1.0,51,0.00,,---,0.01,455.00,VWS V14.01,2013-09-13 21:41:00,
2013-09-13 17:46:00,75.0,54.6,29.82,NNW,331,0.0,3.0,49,0.00,,---,0.01,450.00,VWS V14.01,2013-09-13 21:46:00,
2013-09-13 17:50:00,74.7,54.3,29.82,NW,315,1.0,4.0,49,0.00,,---,0.01,425.00,VWS V14.01,2013-09-13 21:50:00,
2013-09-13 17:51:00,74.8,57.1,29.82,NE,42,0.0,2.0,54,0.00,,---,0.01,438.00,VWS V14.01,2013-09-13 21:51:00,
2013-09-13 17:56:00,74.7,55.9,29.82,North,355,0.0,4.0,52,0.00,,---,0.01,439.00,VWS V14.01,2013-09-13 21:56:00,
2013-09-13 18:00:00,73.9,54.1,29.82,ENE,72,0.0,5.0,50,0.00,,---,0.01,339.00,VWS V14.01,2013-09-13 22:00:00,
2013-09-13 18:01:00,74.4,54.6,29.82,North,10,0.0,3.0,50,0.00,,---,0.01,397.00,VWS V14.01,2013-09-13 22:01:00,
2013-09-13 18:06:00,74.1,53.7,29.82,ENE,71,1.0,5.0,49,0.00,,---,0.01,359.00,VWS V14.01,2013-09-13 22:06:00,
2013-09-13 18:10:00,73.0,54.3,29.82,ENE,61,0.0,3.0,52,0.00,,---,0.01,283.00,VWS V14.01,2013-09-13 22:10:00,
2013-09-13 18:11:00,73.6,54.4,29.82,SSE,152,0.0,1.0,51,0.00,,---,0.01,325.00,VWS V14.01,2013-09-13 22:11:00,
2013-09-13 18:16:00,73.1,53.9,29.82,ENE,61,0.0,3.0,51,0.00,,---,0.01,290.00,VWS V14.01,2013-09-13 22:16:00,
2013-09-13 18:20:00,72.8,54.2,29.83,ENE,57,0.0,2.0,52,0.00,,---,0.01,243.00,VWS V14.01,2013-09-13 22:20:00,
2013-09-13 18:22:00,72.8,54.2,29.82,ENE,61,0.0,0.0,52,0.00,,---,0.01,269.00,VWS V14.01,2013-09-13 22:22:00,
2013-09-13 18:27:00,72.8,53.1,29.82,ENE,57,0.0,2.0,50,0.00,,---,0.01,246.00,VWS V14.01,2013-09-13 22:27:00,
2013-09-13 18:30:00,73.0,55.9,29.82,ENE,57,0.0,1.0,55,0.00,,---,0.01,193.00,VWS V14.01,2013-09-13 22:30:00,
2013-09-13 18:32:00,73.1,54.5,29.82,ENE,57,0.0,0.0,52,0.00,,---,0.01,221.00,VWS V14.01,2013-09-13 22:32:00,
2013-09-13 18:37:00,73.0,55.4,29.82,ENE,57,0.0,1.0,54,0.00,,---,0.01,197.00,VWS V14.01,2013-09-13 22:37:00,
2013-09-13 18:40:00,72.4,55.8,29.82,ENE,57,0.0,1.0,56,0.00,,---,0.01,144.00,VWS V14.01,2013-09-13 22:40:00,
2013-09-13 18:42:00,72.6,52.9,29.82,ENE,57,0.0,1.0,50,0.00,,---,0.01,176.00,VWS V14.01,2013-09-13 22:42:00,
2013-09-13 18:47:00,72.4,55.8,29.82,ENE,57,0.0,1.0,56,0.00,,---,0.01,151.00,VWS V14.01,2013-09-13 22:47:00,
2013-09-13 18:50:00,72.6,56.5,29.83,ENE,57,0.0,0.0,57,0.00,,---,0.01,105.00,VWS V14.01,2013-09-13 22:50:00,
2013-09-13 18:52:00,72.5,54.9,29.83,ENE,57,0.0,0.0,54,0.00,,---,0.01,127.00,VWS V14.01,2013-09-13 22:52:00,
2013-09-13 18:57:00,72.6,56.0,29.83,ENE,57,0.0,0.0,56,0.00,,---,0.01,105.00,VWS V14.01,2013-09-13 22:57:00,
2013-09-13 19:00:00,71.8,54.8,29.83,ENE,57,0.0,1.0,55,0.00,,---,0.01,54.00,VWS V14.01,2013-09-13 23:00:00,
2013-09-13 19:02:00,72.4,55.8,29.83,ENE,57,0.0,1.0,56,0.00,,---,0.01,83.00,VWS V14.01,2013-09-13 23:02:00,
2013-09-13 19:08:00,71.8,54.8,29.83,ENE,57,0.0,1.0,55,0.00,,---,0.01,54.00,VWS V14.01,2013-09-13 23:08:00,
2013-09-13 19:10:00,70.4,54.0,29.83,ENE,57,0.0,0.0,56,0.00,,---,0.01,18.00,VWS V14.01,2013-09-13 23:10:00,
2013-09-13 19:13:00,71.2,54.2,29.83,ENE,57,0.0,0.0,55,0.00,,---,0.01,19.00,VWS V14.01,2013-09-13 23:13:00,
2013-09-13 19:18:00,70.4,54.0,29.83,ENE,57,0.0,0.0,56,0.00,,---,0.01,18.00,VWS V14.01,2013-09-13 23:18:00,
2013-09-13 19:20:00,68.8,53.4,29.83,ENE,57,0.0,0.0,58,0.00,,---,0.01,11.00,VWS V14.01,2013-09-13 23:20:00,
2013-09-13 19:23:00,69.7,53.3,29.83,ENE,57,0.0,0.0,56,0.00,,---,0.01,14.00,VWS V14.01,2013-09-13 23:23:00,
2013-09-13 19:28:00,68.8,53.4,29.84,ENE,57,0.0,0.0,58,0.00,,---,0.01,11.00,VWS V14.01,2013-09-13 23:28:00,
2013-09-13 19:30:00,67.3,53.8,29.84,ENE,57,0.0,0.0,62,0.00,,---,0.01,5.00,VWS V14.01,2013-09-13 23:30:00,
2013-09-13 19:33:00,68.0,53.2,29.84,ENE,57,0.0,0.0,59,0.00,,---,0.01,9.00,VWS V14.01,2013-09-13 23:33:00,
2013-09-13 19:38:00,67.2,53.8,29.84,ENE,57,0.0,1.0,62,0.00,,---,0.01,5.00,VWS V14.01,2013-09-13 23:38:00,
2013-09-13 19:40:00,65.7,52.8,29.84,ENE,57,0.0,1.0,63,0.00,,---,0.01,0.00,VWS V14.01,2013-09-13 23:40:00,
2013-09-13 19:43:00,66.4,53.0,29.84,ENE,57,0.0,1.0,62,0.00,,---,0.01,0.00,VWS V14.01,2013-09-13 23:43:00,
2013-09-13 19:49:00,65.6,53.1,29.84,ENE,57,0.0,0.0,64,0.00,,---,0.01,0.00,VWS V14.01,2013-09-13 23:49:00,
2013-09-13 19:50:00,64.4,52.8,29.84,ENE,57,0.0,0.0,66,0.00,,---,0.01,0.00,VWS V14.01,2013-09-13 23:50:00,
2013-09-13 19:54:00,64.9,52.9,29.84,ENE,57,0.0,0.0,65,0.00,,---,0.01,0.00,VWS V14.01,2013-09-13 23:54:00,
2013-09-13 19:59:00,64.2,52.6,29.85,ENE,57,0.0,0.0,66,0.00,,---,0.01,0.00,VWS V14.01,2013-09-13 23:59:00,
2013-09-13 20:00:00,63.2,52.9,29.84,ENE,57,0.0,0.0,69,0.00,,---,0.01,0.00,VWS V14.01,2013-09-14 00:00:00,
2013-09-13 20:04:00,63.7,53.0,29.84,ENE,57,0.0,0.0,68,0.00,,---,0.01,0.00,VWS V14.01,2013-09-14 00:04:00,
2013-09-13 20:09:00,63.1,52.8,29.85,ENE,57,0.0,0.0,69,0.00,,---,0.01,0.00,VWS V14.01,2013-09-14 00:09:00,
2013-09-13 20:10:00,62.1,52.2,29.85,ENE,57,0.0,0.0,70,0.00,,---,0.01,0.00,VWS V14.01,2013-09-14 00:10:00,
2013-09-13 20:14:00,62.5,52.6,29.85,ENE,57,0.0,0.0,70,0.00,,---,0.01,0.00,VWS V14.01,2013-09-14 00:14:00,
2013-09-13 20:19:00,62.0,52.1,29.85,ENE,57,0.0,0.0,70,0.00,,---,0.01,0.00,VWS V14.01,2013-09-14 00:19:00,
2013-09-13 20:20:00,61.6,52.1,29.85,ENE,57,1.0,2.0,71,0.00,,---,0.01,0.00,VWS V14.01,2013-09-14 00:20:00,
2013-09-13 20:24:00,61.7,52.2,29.85,ENE,57,0.0,2.0,71,0.00,,---,0.01,0.00,VWS V14.01,2013-09-14 00:24:00,
2013-09-13 20:29:00,61.6,52.1,29.85,ENE,57,0.0,1.0,71,0.00,,---,0.01,0.00,VWS V14.01,2013-09-14 00:29:00,
2013-09-13 20:30:00,61.4,52.3,29.86,ENE,57,0.0,2.0,72,0.00,,---,0.01,0.00,VWS V14.01,2013-09-14 00:30:00,
2013-09-13 20:35:00,61.4,51.9,29.86,ENE,57,0.0,2.0,71,0.00,,---,0.01,0.00,VWS V14.01,2013-09-14 00:35:00,
2013-09-13 20:40:00,61.3,52.2,29.86,ENE,62,0.0,2.0,72,0.00,,---,0.01,0.00,VWS V14.01,2013-09-14 00:40:00,
2013-09-13 20:45:00,61.2,52.1,29.86,ENE,62,0.0,2.0,72,0.00,,---,0.01,0.00,VWS V14.01,2013-09-14 00:45:00,
2013-09-13 20:50:00,61.1,52.0,29.86,East,90,0.0,0.0,72,0.00,,---,0.01,0.00,VWS V14.01,2013-09-14 00:50:00,
2013-09-13 20:55:00,61.0,52.3,29.86,East,90,0.0,0.0,73,0.00,,---,0.01,0.00,VWS V14.01,2013-09-14 00:55:00,
2013-09-13 21:00:00,60.9,52.2,29.87,East,90,0.0,0.0,73,0.00,,---,0.01,0.00,VWS V14.01,2013-09-14 01:00:00,
2013-09-13 21:05:00,60.7,52.4,29.87,East,90,0.0,0.0,74,0.00,,---,0.01,0.00,VWS V14.01,2013-09-14 01:05:00,
2013-09-13 21:10:00,60.5,52.2,29.88,East,90,0.0,0.0,74,0.00,,---,0.01,0.00,VWS V14.01,2013-09-14 01:10:00,
2013-09-13 21:16:00,60.3,52.0,29.88,East,90,0.0,0.0,74,0.00,,---,0.01,0.00,VWS V14.01,2013-09-14 01:16:00,
2013-09-13 21:20:00,59.6,52.0,29.88,ENE,74,0.0,2.0,76,0.00,,---,0.01,0.00,VWS V14.01,2013-09-14 01:20:00,
2013-09-13 21:21:00,60.0,52.1,29.88,East,90,0.0,0.0,75,0.00,,---,0.01,0.00,VWS V14.01,2013-09-14 01:21:00,
2013-09-13 21:26:00,59.7,52.1,29.88,East,90,0.0,0.0,76,0.00,,---,0.01,0.00,VWS V14.01,2013-09-14 01:26:00,
2013-09-13 21:30:00,59.2,51.7,29.88,ENE,73,0.0,1.0,76,0.00,,---,0.01,0.00,VWS V14.01,2013-09-14 01:30:00,
2013-09-13 21:31:00,59.4,51.8,29.88,ENE,74,0.0,0.0,76,0.00,,---,0.01,0.00,VWS V14.01,2013-09-14 01:31:00,
2013-09-13 21:36:00,59.2,51.7,29.88,ENE,73,0.0,1.0,76,0.00,,---,0.01,0.00,VWS V14.01,2013-09-14 01:36:00,
2013-09-13 21:40:00,59.1,51.9,29.89,ENE,77,0.0,1.0,77,0.00,,---,0.01,0.00,VWS V14.01,2013-09-14 01:40:00,
2013-09-13 21:41:00,59.1,51.9,29.88,ENE,77,0.0,1.0,77,0.00,,---,0.01,0.00,VWS V14.01,2013-09-14 01:41:00,
2013-09-13 21:46:00,59.1,51.9,29.89,ENE,77,0.0,1.0,77,0.00,,---,0.01,0.00,VWS V14.01,2013-09-14 01:46:00,
2013-09-13 21:50:00,58.8,51.6,29.89,ENE,77,0.0,1.0,77,0.00,,---,0.01,0.00,VWS V14.01,2013-09-14 01:50:00,
2013-09-13 21:51:00,59.0,51.8,29.89,ENE,77,0.0,0.0,77,0.00,,---,0.01,0.00,VWS V14.01,2013-09-14 01:51:00,
2013-09-13 21:57:00,58.9,52.1,29.89,ENE,77,0.0,1.0,78,0.00,,---,0.01,0.00,VWS V14.01,2013-09-14 01:57:00,
2013-09-13 22:00:00,58.5,52.0,29.89,ENE,77,0.0,0.0,79,0.00,,---,0.01,0.00,VWS V14.01,2013-09-14 02:00:00,
2013-09-13 22:02:00,58.7,51.9,29.89,ENE,77,0.0,0.0,78,0.00,,---,0.01,0.00,VWS V14.01,2013-09-14 02:02:00,
2013-09-13 22:07:00,58.5,51.7,29.89,ENE,77,0.0,0.0,78,0.00,,---,0.01,0.00,VWS V14.01,2013-09-14 02:07:00,
2013-09-13 22:10:00,58.1,52.0,29.89,ENE,77,0.0,1.0,80,0.00,,---,0.01,0.00,VWS V14.01,2013-09-14 02:10:00,
2013-09-13 22:12:00,58.3,51.8,29.89,ENE,77,0.0,1.0,79,0.00,,---,0.01,0.00,VWS V14.01,2013-09-14 02:12:00,
2013-09-13 22:17:00,58.1,52.0,29.89,ENE,77,0.0,1.0,80,0.00,,---,0.01,0.00,VWS V14.01,2013-09-14 02:17:00,
2013-09-13 22:20:00,57.7,51.9,29.90,ENE,77,0.0,0.0,81,0.00,,---,0.01,0.00,VWS V14.01,2013-09-14 02:20:00,
2013-09-13 22:22:00,57.9,51.8,29.90,ENE,77,0.0,0.0,80,0.00,,---,0.01,0.00,VWS V14.01,2013-09-14 02:22:00,
2013-09-13 22:27:00,57.7,51.9,29.90,ENE,77,0.0,0.0,81,0.00,,---,0.01,0.00,VWS V14.01,2013-09-14 02:27:00,
2013-09-13 22:30:00,57.2,51.8,29.90,ENE,77,0.0,0.0,82,0.00,,---,0.01,0.00,VWS V14.01,2013-09-14 02:30:00,
2013-09-13 22:33:00,57.5,51.7,29.90,ENE,77,0.0,0.0,81,0.00,,---,0.01,0.00,VWS V14.01,2013-09-14 02:33:00,
2013-09-13 22:38:00,57.2,51.8,29.90,ENE,77,0.0,0.0,82,0.00,,---,0.01,0.00,VWS V14.01,2013-09-14 02:38:00,
2013-09-13 22:40:00,56.7,51.6,29.90,ENE,77,0.0,0.0,83,0.00,,---,0.01,0.00,VWS V14.01,2013-09-14 02:40:00,
2013-09-13 22:43:00,56.9,51.5,29.90,ENE,77,0.0,0.0,82,0.00,,---,0.01,0.00,VWS V14.01,2013-09-14 02:43:00,
2013-09-13 22:48:00,56.6,51.5,29.90,ENE,77,0.0,0.0,83,0.00,,---,0.01,0.00,VWS V14.01,2013-09-14 02:48:00,
2013-09-13 22:50:00,56.3,51.5,29.90,ENE,77,0.0,1.0,84,0.00,,---,0.01,0.00,VWS V14.01,2013-09-14 02:50:00,
2013-09-13 22:53:00,56.4,51.3,29.90,ENE,77,0.0,0.0,83,0.00,,---,0.01,0.00,VWS V14.01,2013-09-14 02:53:00,
2013-09-13 22:58:00,56.2,51.4,29.90,ENE,77,0.0,1.0,84,0.00,,---,0.01,0.00,VWS V14.01,2013-09-14 02:58:00,
2013-09-13 23:00:00,56.1,51.7,29.91,ENE,77,0.0,2.0,85,0.00,,---,0.01,0.00,VWS V14.01,2013-09-14 03:00:00,
2013-09-13 23:03:00,56.1,51.3,29.90,ENE,77,0.0,1.0,84,0.00,,---,0.01,0.00,VWS V14.01,2013-09-14 03:03:00,
2013-09-13 23:09:00,56.1,51.7,29.91,ENE,77,0.0,0.0,85,0.00,,---,0.01,0.00,VWS V14.01,2013-09-14 03:09:00,
2013-09-13 23:10:00,56.1,51.3,29.91,ENE,77,0.0,3.0,84,0.00,,---,0.01,0.00,VWS V14.01,2013-09-14 03:10:00,
2013-09-13 23:14:00,56.1,51.3,29.91,ENE,77,2.0,2.0,84,0.00,,---,0.01,0.00,VWS V14.01,2013-09-14 03:14:00,
2013-09-13 23:19:00,56.1,51.3,29.91,ENE,77,0.0,0.0,84,0.00,,---,0.01,0.00,VWS V14.01,2013-09-14 03:19:00,
2013-09-13 23:20:00,55.8,51.0,29.91,ENE,77,1.0,1.0,84,0.00,,---,0.01,0.00,VWS V14.01,2013-09-14 03:20:00,
2013-09-13 23:24:00,56.0,51.2,29.90,ENE,77,0.0,0.0,84,0.00,,---,0.01,0.00,VWS V14.01,2013-09-14 03:24:00,
2013-09-13 23:29:00,55.8,51.0,29.91,ENE,77,0.0,1.0,84,0.00,,---,0.01,0.00,VWS V14.01,2013-09-14 03:29:00,
2013-09-13 23:30:00,55.7,51.3,29.91,ESE,123,0.0,2.0,85,0.00,,---,0.01,0.00,VWS V14.01,2013-09-14 03:30:00,
2013-09-13 23:34:00,55.7,51.3,29.91,ENE,77,0.0,1.0,85,0.00,,---,0.01,0.00,VWS V14.01,2013-09-14 03:34:00,
2013-09-13 23:39:00,55.7,51.3,29.91,ESE,118,0.0,0.0,85,0.00,,---,0.01,0.00,VWS V14.01,2013-09-14 03:39:00,
2013-09-13 23:40:00,55.6,51.2,29.91,ESE,121,0.0,1.0,85,0.00,,---,0.01,0.00,VWS V14.01,2013-09-14 03:40:00,
2013-09-13 23:44:00,55.6,51.2,29.91,ESE,121,0.0,1.0,85,0.00,,---,0.01,0.00,VWS V14.01,2013-09-14 03:44:00,
2013-09-13 23:50:00,55.6,51.2,29.91,ESE,121,0.0,0.0,85,0.00,,---,0.01,0.00,VWS V14.01,2013-09-14 03:50:00,
2013-09-13 23:55:00,55.5,51.1,29.91,ESE,121,0.0,1.0,85,0.00,,---,0.01,0.00,VWS V14.01,2013-09-14 03:55:00,